Estación Meteorológica Peña el Pijo (Robertgarden) [ 11/14/19 11:50:49 CET ]

Fecha Hora Presion(HPa) Temp (°C) Humedad % Rocio (°C) Viento ( m/s) Direccion Lluvia 1Hora(mm) Lluvia 24H(mm) LLuvia Total(mm)
2019-Jul-21 01:01:49 1014.000 21.2 47 9.4         344.18
2019-Jul-21 02:01:39 1013.700 18.8 54 9.3         344.18
2019-Jul-21 03:01:47 1013.400 17.3 58 8.9         344.18
2019-Jul-21 04:05:41 1013.200 16.2 63 9.2         344.18
2019-Jul-21 05:06:15 1013.200 15.3 66 9.0         344.18
2019-Jul-21 06:01:47 1013.100 14.4 69 8.8         344.18
2019-Jul-21 07:01:45 1013.200 13.9 72 8.9         344.18
2019-Jul-21 08:01:59 1013.400 14.9 72 9.9         344.18
2019-Jul-21 09:01:56 1013.700 20.4 62 12.9         344.18
2019-Jul-21 10:01:58 1013.600 27.5 43 13.8         344.18
2019-Jul-21 11:01:48 1013.400 29.6 33 11.6         344.18
2019-Jul-21 12:01:54 1013.700 31.1 29 10.9 1.8 SSW     344.18
2019-Jul-21 13:01:46 1013.800 32.1 28 11.2 1.4 SW     344.18
2019-Jul-21 14:02:12 1014.200 32.4 29 12.0         344.18
2019-Jul-21 15:01:47 1014.200 32.4 29 12.0         344.18
2019-Jul-21 16:01:44 1013.800 34.0 28 12.8         344.18
2019-Jul-21 17:01:56 1013.700 33.3 30 13.4         344.18
2019-Jul-21 18:01:40 1013.500 32.9 28 11.9         344.18
2019-Jul-21 19:01:34 1013.400 31.1 29 10.9         344.18
2019-Jul-21 20:01:42 1013.900 29.2 30 9.9 2.1 SSW     344.18
2019-Jul-21 21:02:09 1014.600 26.8 36 10.4         344.18
2019-Jul-21 22:01:48 1015.600 24.4 35 7.9 2.2 NNW     344.18
2019-Jul-21 23:01:44 1016.700 23.3 32 5.6         344.18

Temperatura Máxima:34°    Temperatura Mínima:13°
Presión Máxima:1016.700 Hpa    Presión Mínima:1013.100 Hpa


Volver